Time;durP1;ratioP1;P1;durP2;ratioP2;P2;SDS_P1;SDS_P2;PMS_P1;PMS_P2;Temp;Humidity;BMP_temperature;BMP_pressure;BME280_temperature;BME280_humidity;BME280_pressure;Samples;Min_cycle;Max_cycle;Signal;HPM_P1;HPM_P2
2021/08/27 00:00:30;;;;;;;14.85;6.55;;;;;;;15.13;88.52;99897.32;1591379;87;27624;-79
2021/08/27 00:02:59;;;;;;;12.35;6.92;;;;;;;15.11;88.71;99889.98;1638793;86;26022;-79
2021/08/27 00:05:26;;;;;;;11.45;6.42;;;;;;;15.11;88.73;99895.38;1639785;86;25944;-79
2021/08/27 00:07:53;;;;;;;12.18;6.30;;;;;;;15.13;88.87;99891.09;1621170;87;26270;-80
2021/08/27 00:10:20;;;;;;;8.23;6.17;;;;;;;15.11;88.61;99887.30;1597661;87;26000;-80
2021/08/27 00:12:47;;;;;;;10.48;6.90;;;;;;;15.10;88.53;99892.90;1616288;86;28192;-79
2021/08/27 00:15:14;;;;;;;9.63;7.08;;;;;;;15.09;88.59;99891.27;1645901;87;25908;-79
2021/08/27 00:17:42;;;;;;;8.28;6.67;;;;;;;15.09;88.68;99896.67;1619625;87;25789;-80
2021/08/27 00:20:11;;;;;;;8.13;6.47;;;;;;;15.07;88.65;99904.17;1598580;87;26015;-80
2021/08/27 00:22:38;;;;;;;8.15;6.15;;;;;;;15.02;88.65;99904.86;1616112;87;25804;-80
2021/08/27 00:25:06;;;;;;;9.25;7.10;;;;;;;15.04;88.81;99905.97;1645561;84;28235;-79
2021/08/27 00:27:33;;;;;;;9.78;7.17;;;;;;;15.03;88.86;99909.22;1642449;87;26070;-79
2021/08/27 00:30:01;;;;;;;10.63;7.72;;;;;;;15.04;89.08;99914.06;1604263;86;25913;-79
2021/08/27 00:32:28;;;;;;;7.87;6.65;;;;;;;15.01;89.08;99919.39;1624688;87;25924;-79
2021/08/27 00:34:55;;;;;;;10.18;7.00;;;;;;;15.02;89.25;99918.34;1623743;86;26544;-80
2021/08/27 00:37:23;;;;;;;9.55;7.50;;;;;;;15.01;89.32;99928.03;1647260;85;28432;-80
2021/08/27 00:39:50;;;;;;;10.32;6.85;;;;;;;15.00;89.44;99930.42;1622043;87;25591;-80
2021/08/27 00:42:17;;;;;;;10.53;8.13;;;;;;;14.98;89.51;99929.83;1624438;86;26011;-79
2021/08/27 00:44:44;;;;;;;10.55;7.55;;;;;;;14.95;89.56;99932.45;1646082;87;25767;-79
2021/08/27 00:47:11;;;;;;;9.08;7.25;;;;;;;14.94;89.76;99930.83;1645852;84;25331;-79
2021/08/27 00:49:38;;;;;;;8.95;7.17;;;;;;;14.96;89.83;99934.63;1619416;87;27528;-80
2021/08/27 00:52:06;;;;;;;10.70;7.92;;;;;;;14.98;89.83;99933.88;1597216;87;26350;-79
2021/08/27 00:54:33;;;;;;;12.28;7.67;;;;;;;14.99;89.91;99940.92;1646270;87;25834;-79
2021/08/27 00:57:06;;;;;;;11.43;7.95;;;;;;;14.99;89.96;99943.62;1645885;87;25967;-79
2021/08/27 00:59:35;;;;;;;11.30;7.50;;;;;;;14.99;89.90;99946.32;1622209;87;25833;-79
2021/08/27 01:02:03;;;;;;;12.58;7.70;;;;;;;14.95;89.91;99948.64;1619763;87;27599;-78
2021/08/27 01:04:30;;;;;;;14.47;8.63;;;;;;;14.93;89.98;99955.31;1599155;87;25941;-79
2021/08/27 01:07:05;;;;;;;12.07;8.55;;;;;;;14.90;90.06;99955.78;1645908;87;25920;-80
2021/08/27 01:09:46;;;;;;;10.13;8.20;;;;;;;14.89;90.20;99959.00;1625910;87;25783;-79
2021/08/27 01:12:23;;;;;;;;;;;;;;;14.88;90.18;99962.77;1646348;86;25737;-79
2021/08/27 01:14:57;;;;;;;9.25;7.70;;;;;;;14.89;90.43;99960.87;1614927;87;27630;-80
2021/08/27 01:17:39;;;;;;;16.87;8.28;;;;;;;14.86;90.51;99970.27;1645944;87;25834;-79
2021/08/27 01:20:27;;;;;;;12.73;9.20;;;;;;;14.84;90.50;99971.54;1619444;87;25857;-79
2021/08/27 01:23:23;;;;;;;10.28;8.10;;;;;;;14.82;90.50;99973.64;1620397;87;26496;-79
2021/08/27 01:25:55;;;;;;;10.20;7.62;;;;;;;14.80;90.56;99975.75;1629524;85;25944;-80
2021/08/27 01:28:22;;;;;;;;;;;;;;;14.81;90.69;99978.73;1648545;87;27795;-80
2021/08/27 01:31:18;;;;;;;12.68;7.72;;;;;;;14.80;90.81;99976.55;1626447;86;26586;-80
2021/08/27 01:34:08;;;;;;;11.10;8.58;;;;;;;14.75;90.71;99980.48;1596068;86;25749;-80
2021/08/27 01:36:37;;;;;;;12.73;8.23;;;;;;;14.73;90.80;99980.41;1629077;87;25797;-79
2021/08/27 01:39:07;;;;;;;18.12;10.18;;;;;;;14.67;90.77;99978.91;1589029;87;25863;-80
2021/08/27 01:41:39;;;;;;;15.50;9.08;;;;;;;14.67;90.95;99981.60;1639877;87;27622;-80
2021/08/27 01:44:08;;;;;;;10.70;8.13;;;;;;;14.68;91.00;99975.69;1598015;86;26182;-80
2021/08/27 01:46:39;;;;;;;12.47;9.00;;;;;;;14.70;90.92;99974.94;1646418;87;25786;-79
2021/08/27 01:49:12;;;;;;;12.28;8.20;;;;;;;14.72;90.99;99973.35;1624294;87;25844;-79
2021/08/27 01:51:41;;;;;;;16.17;10.38;;;;;;;14.74;90.92;99975.29;1641429;87;25775;-79
2021/08/27 01:54:09;;;;;;;18.60;10.75;;;;;;;14.75;90.85;99979.65;1599434;87;27371;-79
2021/08/27 01:56:39;;;;;;;14.28;9.40;;;;;;;14.76;90.81;99985.32;1641613;84;25739;-79
2021/08/27 01:59:07;;;;;;;14.05;9.88;;;;;;;14.76;90.83;99983.45;1598009;87;26260;-79
2021/08/27 02:01:36;;;;;;;11.57;8.75;;;;;;;14.77;90.85;99977.55;1618104;86;25841;-78
2021/08/27 02:04:08;;;;;;;13.85;8.25;;;;;;;14.78;90.81;99982.70;1645770;87;26087;-79
2021/08/27 02:06:36;;;;;;;10.32;8.13;;;;;;;14.78;90.82;99989.44;1646154;86;27459;-80
2021/08/27 02:09:05;;;;;;;13.45;9.25;;;;;;;14.78;90.67;99981.34;1595596;87;26346;-80
2021/08/27 02:11:35;;;;;;;11.88;8.43;;;;;;;14.78;90.73;99980.55;1619537;88;25771;-79
2021/08/27 02:14:03;;;;;;;14.25;9.10;;;;;;;14.79;90.86;99981.66;1623004;86;26008;-80
2021/08/27 02:16:30;;;;;;;10.48;8.35;;;;;;;14.82;90.86;99979.04;1645957;87;25829;-80
2021/08/27 02:18:58;;;;;;;14.53;8.13;;;;;;;14.81;90.62;99984.12;1597238;87;27480;-78
2021/08/27 02:21:29;;;;;;;16.85;11.12;;;;;;;14.78;90.60;99986.74;1624643;87;26680;-79
2021/08/27 02:23:59;;;;;;;20.62;10.60;;;;;;;14.76;90.69;99984.80;1605110;86;25417;-80
2021/08/27 02:26:27;;;;;;;17.95;11.12;;;;;;;14.75;90.69;99987.73;1646219;87;26446;-79
2021/08/27 02:28:56;;;;;;;15.20;9.70;;;;;;;14.75;90.79;99990.44;1604762;86;25365;-80
2021/08/27 02:31:26;;;;;;;11.15;7.90;;;;;;;14.76;90.75;99985.32;1648866;86;28153;-80
2021/08/27 02:33:53;;;;;;;12.40;8.00;;;;;;;14.75;90.73;99982.34;1646403;87;25863;-80
2021/08/27 02:36:21;;;;;;;10.32;7.85;;;;;;;14.75;90.79;99983.17;1642933;87;25911;-80
2021/08/27 02:38:51;;;;;;;11.30;8.55;;;;;;;14.77;90.75;99974.84;1598833;87;25796;-79
2021/08/27 02:41:18;;;;;;;10.53;8.10;;;;;;;14.78;90.68;99977.86;1624786;87;25863;-80
2021/08/27 02:43:45;;;;;;;12.78;8.60;;;;;;;14.77;90.63;99977.02;1623817;87;27545;-79
2021/08/27 02:46:12;;;;;;;11.80;8.50;;;;;;;14.77;90.60;99980.24;1645953;87;26423;-79
2021/08/27 02:48:39;;;;;;;12.20;8.03;;;;;;;14.76;90.63;99975.37;1596390;87;25784;-78
2021/08/27 02:51:16;;;;;;;11.25;8.03;;;;;;;14.78;90.62;99977.86;1624477;87;26433;-79
2021/08/27 02:53:51;;;;;;;11.22;8.40;;;;;;;14.77;90.49;99982.94;1604444;87;25867;-80
2021/08/27 02:56:27;;;;;;;11.60;8.13;;;;;;;14.74;90.54;99986.91;1645979;87;28199;-80
2021/08/27 02:58:58;;;;;;;11.50;8.48;;;;;;;14.74;90.53;99984.20;1620344;87;25371;-80
2021/08/27 03:01:37;;;;;;;9.03;7.58;;;;;;;14.71;90.50;99983.34;1616962;87;32673;-79
2021/08/27 03:04:18;;;;;;;10.68;8.33;;;;;;;14.71;90.51;99987.38;1623958;87;26423;-79
2021/08/27 03:06:51;;;;;;;;;;;;;;;14.72;90.61;99989.52;1621757;87;25779;-80
2021/08/27 03:09:19;;;;;;;12.85;8.05;;;;;;;14.71;90.70;99988.73;1620146;87;27568;-79
2021/08/27 03:11:52;;;;;;;10.25;8.73;;;;;;;14.68;90.57;99987.83;1646045;87;25794;-79
2021/08/27 03:14:41;;;;;;;10.48;8.80;;;;;;;14.67;90.52;99993.73;1645637;84;25334;-79
2021/08/27 03:17:14;;;;;;;10.68;7.95;;;;;;;14.66;90.59;99998.02;1647992;86;25886;-79
2021/08/27 03:19:46;;;;;;;11.22;8.93;;;;;;;14.64;90.55;99991.52;1624478;86;26264;-79
2021/08/27 03:22:27;;;;;;;17.02;9.13;;;;;;;14.63;90.50;99995.24;1645200;85;27624;-79
2021/08/27 03:25:10;;;;;;;12.50;8.33;;;;;;;14.62;90.49;99994.13;1645921;87;25929;-79
2021/08/27 03:27:47;;;;;;;11.10;7.92;;;;;;;14.61;90.57;100001.39;1649718;85;25885;-80
2021/08/27 03:30:23;;;;;;;11.73;7.75;;;;;;;14.61;90.60;99996.52;1641110;85;25843;-79
2021/08/27 03:32:55;;;;;;;14.38;10.03;;;;;;;14.59;90.54;100005.35;1640029;87;25901;-79
2021/08/27 03:35:23;;;;;;;32.88;16.20;;;;;;;14.58;90.56;99997.78;1623579;86;28216;-79
2021/08/27 03:37:53;;;;;;;46.77;23.62;;;;;;;14.59;90.61;99996.75;1604677;86;25836;-79
2021/08/27 03:40:22;;;;;;;55.10;28.07;;;;;;;14.58;90.64;100001.83;1597807;87;26005;-79
2021/08/27 03:42:50;;;;;;;34.30;18.95;;;;;;;14.57;90.59;99995.33;1619610;87;26568;-80
2021/08/27 03:45:21;;;;;;;18.57;12.10;;;;;;;14.58;90.64;99995.64;1645785;87;25851;-79
2021/08/27 03:47:50;;;;;;;23.10;12.73;;;;;;;14.58;90.53;99999.68;1621926;87;27502;-79
2021/08/27 03:50:18;;;;;;;21.10;12.95;;;;;;;14.56;90.55;99997.74;1619897;87;25905;-80
2021/08/27 03:52:46;;;;;;;21.55;13.70;;;;;;;14.53;90.56;100000.88;1646233;87;25880;-79
2021/08/27 03:55:16;;;;;;;37.95;19.75;;;;;;;14.50;90.69;100000.80;1645809;84;26597;-79
2021/08/27 03:57:46;;;;;;;44.70;21.35;;;;;;;14.49;90.80;99999.17;1577057;87;25778;-79
2021/08/27 04:00:17;;;;;;;32.15;17.15;;;;;;;14.47;90.79;100001.27;1622179;87;28807;-79
2021/08/27 04:02:44;;;;;;;;;;;;;;;14.46;90.88;99999.61;1647850;87;26639;-79
2021/08/27 04:05:16;;;;;;;28.12;15.93;;;;;;;14.45;90.95;99998.50;1634755;85;25816;-80
2021/08/27 04:07:44;;;;;;;19.15;12.35;;;;;;;14.41;90.98;99995.96;1645974;86;26450;-79
2021/08/27 04:10:15;;;;;;;22.42;12.88;;;;;;;14.40;90.86;99995.13;1619731;87;25403;-80
2021/08/27 04:12:42;;;;;;;;;;;;;;;14.40;90.88;100001.87;1648674;85;27528;-79
2021/08/27 04:15:12;;;;;;;28.87;15.60;;;;;;;14.40;90.81;100010.47;1598796;87;25744;-79
2021/08/27 04:17:40;;;;;;;19.37;12.18;;;;;;;14.35;90.89;100006.30;1621698;87;25797;-79
2021/08/27 04:20:12;;;;;;;16.30;10.98;;;;;;;14.35;90.83;100007.64;1646028;84;26507;-79
2021/08/27 04:22:40;;;;;;;19.92;10.23;;;;;;;14.35;90.85;100001.70;1645907;87;25787;-79
2021/08/27 04:25:07;;;;;;;14.90;9.35;;;;;;;14.38;90.76;100000.44;1576401;88;27670;-80
2021/08/27 04:27:34;;;;;;;14.20;9.38;;;;;;;14.37;90.67;100000.16;1614698;86;25916;-79
2021/08/27 04:30:01;;;;;;;15.65;9.03;;;;;;;14.37;90.51;100005.55;1640129;87;25861;-79
2021/08/27 04:32:28;;;;;;;23.67;13.53;;;;;;;14.33;90.35;100003.80;1648496;86;25857;-80
2021/08/27 04:34:55;;;;;;;32.40;15.63;;;;;;;14.29;90.33;100009.86;1609069;86;26548;-80
2021/08/27 04:37:22;;;;;;;24.45;14.23;;;;;;;14.30;90.45;100011.52;1624125;86;27584;-80
2021/08/27 04:39:50;;;;;;;23.92;11.85;;;;;;;14.33;90.54;100007.02;1648919;86;26336;-79
2021/08/27 04:42:17;;;;;;;13.95;10.38;;;;;;;14.35;90.49;100011.69;1623582;86;25849;-79
2021/08/27 04:44:43;;;;;;;19.20;11.57;;;;;;;14.37;90.47;100012.28;1601963;86;25872;-79
2021/08/27 04:47:10;;;;;;;18.15;11.35;;;;;;;14.38;90.55;100017.95;1626435;86;25876;-80
2021/08/27 04:49:37;;;;;;;23.32;12.18;;;;;;;14.40;90.57;100026.63;1648430;85;28113;-79
2021/08/27 04:52:06;;;;;;;16.62;10.25;;;;;;;14.41;90.68;100029.09;1648641;86;26050;-79
2021/08/27 04:54:34;;;;;;;12.90;9.13;;;;;;;14.43;90.75;100033.77;1598954;87;26353;-79
2021/08/27 04:57:02;;;;;;;12.58;8.98;;;;;;;14.45;90.71;100046.48;1614648;87;25869;-79
2021/08/27 04:59:29;;;;;;;14.07;8.40;;;;;;;14.48;90.69;100047.88;1640215;86;25834;-80
2021/08/27 05:01:59;;;;;;;12.58;8.53;;;;;;;14.49;90.67;100046.33;1639093;87;27315;-80
2021/08/27 05:04:27;;;;;;;12.47;9.15;;;;;;;14.50;90.60;100052.52;1625232;86;26733;-78
2021/08/27 05:06:56;;;;;;;14.35;9.43;;;;;;;14.51;90.74;100059.57;1601039;87;25471;-79
2021/08/27 05:09:24;;;;;;;15.72;9.90;;;;;;;14.50;90.80;100053.34;1645967;85;26518;-79
2021/08/27 05:11:51;;;;;;;14.40;9.78;;;;;;;14.54;90.95;100059.13;1646193;86;25352;-80
2021/08/27 05:14:18;;;;;;;12.00;9.58;;;;;;;14.57;91.01;100061.36;1608957;87;27537;-80
2021/08/27 05:16:45;;;;;;;13.95;8.65;;;;;;;14.58;90.99;100058.98;1622788;87;26036;-80
2021/08/27 05:19:12;;;;;;;13.78;9.38;;;;;;;14.60;91.12;100060.92;1642777;87;25337;-79
2021/08/27 05:21:39;;;;;;;13.88;8.98;;;;;;;14.61;91.21;100076.03;1645523;87;25848;-79
2021/08/27 05:24:06;;;;;;;15.95;10.25;;;;;;;14.61;91.33;100072.81;1578297;87;26210;-79
2021/08/27 05:26:34;;;;;;;14.80;10.05;;;;;;;14.62;91.44;100074.48;1598966;87;27501;-79
2021/08/27 05:29:02;;;;;;;20.30;10.58;;;;;;;14.65;91.46;100080.75;1620891;87;25885;-79
2021/08/27 05:31:30;;;;;;;17.12;10.48;;;;;;;14.66;91.54;100078.88;1597246;87;25882;-79
2021/08/27 05:33:59;;;;;;;13.58;10.35;;;;;;;14.67;91.61;100084.04;1579406;87;25862;-79
2021/08/27 05:36:27;;;;;;;12.73;10.80;;;;;;;14.68;91.61;100085.70;1623815;87;26105;-78
2021/08/27 05:38:54;;;;;;;15.32;11.70;;;;;;;14.71;91.77;100078.21;1619229;87;27545;-80
2021/08/27 05:41:21;;;;;;;13.90;11.00;;;;;;;14.74;91.64;100086.66;1645964;87;25866;-78
2021/08/27 05:43:48;;;;;;;17.25;11.85;;;;;;;14.71;91.29;100080.39;1576953;87;25853;-79
2021/08/27 05:46:15;;;;;;;17.20;11.80;;;;;;;14.70;91.40;100085.47;1624216;87;25867;-79
2021/08/27 05:48:42;;;;;;;17.65;11.97;;;;;;;14.71;91.61;100087.13;1645932;84;25770;-79
2021/08/27 05:51:09;;;;;;;16.00;12.25;;;;;;;14.71;91.76;100092.52;1645686;87;27503;-78
2021/08/27 05:53:36;;;;;;;15.40;11.78;;;;;;;14.74;91.73;100088.52;1574338;88;25834;-80
2021/08/27 05:56:04;;;;;;;16.60;12.65;;;;;;;14.76;92.03;100085.91;1638742;86;26740;-78
2021/08/27 05:58:31;;;;;;;17.90;11.48;;;;;;;14.81;91.92;100085.23;1640227;86;26477;-80
2021/08/27 06:00:58;;;;;;;17.82;10.68;;;;;;;14.82;91.45;100082.30;1664123;85;25827;-79
2021/08/27 06:03:25;;;;;;;17.48;11.83;;;;;;;14.82;91.50;100082.30;1574334;85;28215;-79
2021/08/27 06:05:52;;;;;;;14.07;11.03;;;;;;;14.85;91.76;100079.68;1612895;87;25995;-80
2021/08/27 06:08:21;;;;;;;13.50;10.55;;;;;;;14.89;91.81;100085.74;1613691;87;25880;-79
2021/08/27 06:10:47;;;;;;;14.50;11.05;;;;;;;14.94;91.71;100086.41;1640282;87;25881;-79
2021/08/27 06:13:14;;;;;;;13.88;9.95;;;;;;;14.95;91.68;100092.13;1617906;86;25406;-80
2021/08/27 06:15:43;;;;;;;16.35;11.40;;;;;;;14.98;91.97;100099.73;1633131;87;27713;-79
2021/08/27 06:18:10;;;;;;;14.47;10.98;;;;;;;14.97;91.81;100105.65;1664250;86;25874;-80
2021/08/27 06:20:38;;;;;;;14.25;10.72;;;;;;;14.93;91.67;100110.38;1664419;86;25849;-79
2021/08/27 06:23:05;;;;;;;17.35;12.40;;;;;;;14.89;91.60;100114.06;1577557;88;25810;-79
2021/08/27 06:25:32;;;;;;;18.73;12.40;;;;;;;14.89;91.76;100109.18;1623760;87;25602;-79
2021/08/27 06:27:59;;;;;;;17.62;11.25;;;;;;;14.87;91.60;100112.12;1619866;87;28241;-79
2021/08/27 06:30:26;;;;;;;14.25;11.85;;;;;;;14.85;91.71;100115.56;1645596;85;25560;-80
2021/08/27 06:32:53;;;;;;;21.93;13.48;;;;;;;14.89;92.15;100112.71;1578455;87;25995;-80
2021/08/27 06:35:21;;;;;;;17.57;11.55;;;;;;;14.91;91.96;100116.00;1625649;87;26587;-79
2021/08/27 06:40:33;;;;;;;16.17;11.85;;;;;;;15.00;92.19;100121.39;1619139;86;27691;-79
2021/08/27 06:43:00;;;;;;;14.15;11.40;;;;;;;15.06;92.22;100126.39;1596560;88;26003;-79
2021/08/27 06:45:27;;;;;;;17.12;12.55;;;;;;;15.08;91.84;100118.89;1645010;87;25791;-79
2021/08/27 06:47:54;;;;;;;13.03;10.88;;;;;;;15.11;91.87;100129.24;1622364;87;25815;-79
2021/08/27 06:50:22;;;;;;;17.90;12.20;;;;;;;15.14;91.92;100132.85;1597863;87;26059;-79
2021/08/27 06:52:49;;;;;;;15.70;11.12;;;;;;;15.16;91.96;100128.05;1598523;87;28321;-80
2021/08/27 06:55:16;;;;;;;14.53;11.12;;;;;;;15.15;91.70;100120.98;1645784;87;25488;-79
2021/08/27 06:57:43;;;;;;;13.85;10.85;;;;;;;15.17;91.74;100129.68;1645748;87;26490;-79
2021/08/27 07:00:12;;;;;;;14.20;11.60;;;;;;;15.18;91.54;100131.34;1579587;87;25944;-80
2021/08/27 07:02:39;;;;;;;15.03;11.57;;;;;;;15.14;91.21;100137.70;1604156;87;25852;-79
2021/08/27 07:05:07;;;;;;;16.42;10.75;;;;;;;15.18;91.36;100134.84;1645694;87;28694;-79
2021/08/27 07:07:34;;;;;;;17.82;12.37;;;;;;;15.24;90.86;100129.08;1645879;86;26071;-80
2021/08/27 07:10:02;;;;;;;12.68;11.00;;;;;;;15.29;91.19;100120.58;1602342;86;26007;-79
2021/08/27 07:12:29;;;;;;;15.50;11.03;;;;;;;15.35;90.71;100121.01;1605228;87;25931;-80
2021/08/27 07:14:56;;;;;;;13.80;10.72;;;;;;;15.45;91.34;100123.20;1645546;87;26582;-79
2021/08/27 07:17:23;;;;;;;13.62;10.50;;;;;;;15.53;91.12;100131.48;1645418;87;27576;-79
2021/08/27 07:19:50;;;;;;;12.53;11.22;;;;;;;15.60;91.35;100133.57;1604529;86;25916;-78
2021/08/27 07:22:17;;;;;;;12.78;10.48;;;;;;;15.66;91.16;100135.34;1605695;87;25799;-79
2021/08/27 07:24:44;;;;;;;14.43;10.13;;;;;;;15.67;90.98;100139.70;1645714;87;25861;-79
2021/08/27 07:27:11;;;;;;;12.00;10.68;;;;;;;15.75;90.99;100146.95;1645322;87;25974;-79
2021/08/27 07:29:38;;;;;;;15.03;10.68;;;;;;;15.84;91.12;100150.13;1617964;86;27593;-80
2021/08/27 07:32:11;;;;;;;14.60;10.38;;;;;;;15.91;90.64;100156.27;1588072;87;25386;-80
2021/08/27 07:34:36;;;;;;;11.28;9.25;;;;;;;15.96;90.52;100150.45;1640979;86;26548;-80
2021/08/27 07:37:03;;;;;;;11.80;9.05;;;;;;;16.03;90.56;100146.30;1640323;87;25931;-79
2021/08/27 07:39:30;;;;;;;11.28;9.45;;;;;;;16.03;89.89;100143.59;1576059;87;25925;-80
2021/08/27 07:41:57;;;;;;;14.43;8.70;;;;;;;16.07;90.05;100147.47;1594922;87;27008;-79
2021/08/27 07:44:24;;;;;;;10.28;8.30;;;;;;;16.11;89.88;100145.42;1640560;87;25954;-78
2021/08/27 07:46:51;;;;;;;11.33;9.10;;;;;;;16.19;90.17;100145.59;1617472;87;26480;-80
2021/08/27 07:49:18;;;;;;;10.58;8.73;;;;;;;16.27;90.19;100147.14;1590961;87;25867;-79
2021/08/27 07:51:47;;;;;;;10.38;8.43;;;;;;;16.35;90.12;100150.31;1617993;87;25888;-79
2021/08/27 07:54:14;;;;;;;11.80;8.60;;;;;;;16.39;89.67;100149.30;1645904;86;28264;-79
2021/08/27 07:56:42;;;;;;;9.78;8.28;;;;;;;16.44;89.75;100147.56;1645955;87;25361;-80
2021/08/27 07:59:09;;;;;;;9.78;8.78;;;;;;;16.49;89.47;100145.47;1578090;86;25826;-80
2021/08/27 08:01:36;;;;;;;11.10;8.45;;;;;;;16.50;89.74;100143.94;1599021;87;26773;-80
2021/08/27 08:04:03;;;;;;;8.40;7.05;;;;;;;16.56;89.28;100148.39;1646194;87;25956;-80
2021/08/27 08:06:31;;;;;;;11.60;7.22;;;;;;;16.59;88.66;100150.64;1646211;87;28390;-80
2021/08/27 08:09:00;;;;;;;13.58;7.78;;;;;;;16.61;88.62;100156.63;1603749;86;25876;-79
2021/08/27 08:11:27;;;;;;;7.78;7.03;;;;;;;16.66;88.40;100153.19;1601377;85;25959;-80
2021/08/27 08:13:54;;;;;;;9.13;6.87;;;;;;;16.67;88.09;100157.03;1646387;87;25850;-80
2021/08/27 08:16:21;;;;;;;8.63;6.50;;;;;;;16.71;88.19;100156.02;1645994;87;26610;-79
2021/08/27 08:18:48;;;;;;;8.00;7.20;;;;;;;16.76;87.63;100158.32;1604445;86;27593;-80
2021/08/27 08:21:17;;;;;;;8.73;7.42;;;;;;;16.81;87.71;100159.77;1600729;87;26144;-79
2021/08/27 08:23:44;;;;;;;8.68;7.12;;;;;;;16.86;87.46;100157.17;1645905;84;25781;-78
2021/08/27 08:26:12;;;;;;;8.90;6.62;;;;;;;16.94;87.61;100156.80;1645792;87;26439;-80
2021/08/27 08:28:39;;;;;;;7.37;6.58;;;;;;;17.08;88.05;100163.30;1598022;85;26274;-79
2021/08/27 08:31:06;;;;;;;9.93;6.83;;;;;;;17.20;87.42;100164.91;1600083;87;28330;-80
2021/08/27 08:33:33;;;;;;;6.72;6.03;;;;;;;17.31;87.23;100164.58;1645841;87;25765;-79
2021/08/27 08:36:01;;;;;;;8.90;6.55;;;;;;;17.42;87.00;100161.84;1645840;87;25353;-79
2021/08/27 08:38:28;;;;;;;6.75;6.05;;;;;;;17.54;87.35;100160.45;1597813;85;25847;-79
2021/08/27 08:40:55;;;;;;;6.28;5.33;;;;;;;17.56;85.91;100169.16;1601162;87;25947;-79
2021/08/27 08:43:22;;;;;;;6.95;5.45;;;;;;;17.58;85.23;100164.31;1646212;87;28318;-80
2021/08/27 08:45:51;;;;;;;8.50;4.70;;;;;;;17.57;84.74;100175.70;1646172;87;25873;-79
2021/08/27 08:48:20;;;;;;;6.40;4.42;;;;;;;17.53;84.29;100179.97;1603562;87;25856;-79
2021/08/27 08:50:47;;;;;;;4.87;4.37;;;;;;;17.58;83.69;100175.98;1620329;87;25847;-79
2021/08/27 08:53:15;;;;;;;7.17;4.70;;;;;;;17.65;83.36;100172.59;1645914;85;25791;-80
2021/08/27 08:55:42;;;;;;;4.87;4.35;;;;;;;17.73;82.65;100168.66;1626566;86;27549;-79
2021/08/27 08:58:09;;;;;;;5.58;3.87;;;;;;;17.86;83.81;100172.94;1598054;87;25978;-80
2021/08/27 09:00:39;;;;;;;4.12;3.70;;;;;;;18.02;84.23;100169.45;1645659;85;26626;-80
2021/08/27 09:03:06;;;;;;;5.08;3.25;;;;;;;18.21;83.99;100173.56;1620233;87;27617;-80
2021/08/27 09:05:34;;;;;;;3.55;3.25;;;;;;;18.33;82.75;100170.22;1646265;85;25875;-79
2021/08/27 09:08:00;;;;;;;6.72;3.60;;;;;;;18.42;82.40;100170.09;1629189;87;27723;-79
2021/08/27 09:10:28;;;;;;;5.35;3.30;;;;;;;18.48;81.24;100174.02;1574078;87;26122;-80
2021/08/27 09:13:05;;;;;;;4.45;2.80;;;;;;;18.53;80.49;100176.52;1646580;87;25773;-80
2021/08/27 09:15:32;;;;;;;3.90;2.85;;;;;;;18.57;79.60;100174.95;1645759;87;25871;-79
2021/08/27 09:18:09;;;;;;;3.60;3.17;;;;;;;18.63;79.78;100172.59;1572429;87;25992;-80
2021/08/27 09:20:36;;;;;;;4.67;3.10;;;;;;;18.68;79.47;100174.03;1621456;86;27272;-80
2021/08/27 09:23:06;;;;;;;5.30;2.40;;;;;;;18.71;78.66;100166.77;1646275;87;25934;-79
2021/08/27 09:25:36;;;;;;;3.45;2.87;;;;;;;18.70;78.75;100163.75;1620634;87;25882;-79
2021/08/27 09:28:16;;;;;;;3.45;2.70;;;;;;;18.65;77.92;100164.50;1607557;87;25964;-79
2021/08/27 09:30:57;;;;;;;4.67;3.30;;;;;;;18.61;77.96;100170.66;1620997;86;26181;-79
2021/08/27 09:33:29;;;;;;;6.80;2.55;;;;;;;18.60;78.35;100176.65;1644297;87;27486;-80
2021/08/27 09:36:06;;;;;;;4.42;2.72;;;;;;;18.62;78.09;100179.11;1646109;87;26054;-81
2021/08/27 09:38:36;;;;;;;3.35;2.75;;;;;;;18.56;77.55;100177.39;1621847;86;25868;-79
2021/08/27 09:41:08;;;;;;;4.33;2.60;;;;;;;18.52;77.67;100168.91;1646331;87;26482;-79
2021/08/27 09:43:47;;;;;;;3.05;2.33;;;;;;;18.53;77.67;100172.45;1646135;85;25832;-80
2021/08/27 09:46:41;;;;;;;4.22;2.60;;;;;;;18.58;77.51;100175.25;1646329;85;27584;-80
2021/08/27 09:49:31;;;;;;;4.58;2.20;;;;;;;18.60;76.71;100179.36;1623300;86;25834;-80
2021/08/27 09:52:01;;;;;;;4.35;2.22;;;;;;;18.60;77.06;100186.14;1611362;87;25898;-80
2021/08/27 09:54:38;;;;;;;2.58;2.25;;;;;;;18.62;76.96;100184.53;1646632;87;26468;-80
2021/08/27 09:57:08;;;;;;;3.58;2.42;;;;;;;18.57;76.42;100182.56;1644578;87;25994;-80
2021/08/27 09:59:50;;;;;;;3.83;2.22;;;;;;;18.53;76.61;100184.13;1642837;85;27594;-80
2021/08/27 10:02:27;;;;;;;4.83;2.10;;;;;;;18.53;76.32;100186.84;1599672;87;25768;-80
2021/08/27 10:05:00;;;;;;;4.17;2.17;;;;;;;18.53;76.45;100192.80;1644511;87;25939;-79
2021/08/27 10:07:38;;;;;;;3.17;1.80;;;;;;;18.52;75.94;100195.23;1626803;87;26625;-80
2021/08/27 10:10:09;;;;;;;2.65;1.90;;;;;;;18.46;75.36;100193.80;1610650;87;25872;-80
2021/08/27 10:12:39;;;;;;;3.20;1.65;;;;;;;18.42;75.13;100202.11;1646267;85;27561;-81
2021/08/27 10:15:09;;;;;;;3.22;1.60;;;;;;;18.41;75.43;100203.72;1617020;87;25974;-80
2021/08/27 10:17:40;;;;;;;1.50;1.40;;;;;;;18.34;74.88;100203.88;1598868;87;25790;-79
2021/08/27 10:20:10;;;;;;;2.05;1.35;;;;;;;18.33;75.16;100214.43;1619937;87;25869;-80
2021/08/27 10:22:41;;;;;;;3.02;1.45;;;;;;;18.30;74.45;100215.47;1645657;87;25880;-81
2021/08/27 10:25:12;;;;;;;1.82;1.40;;;;;;;18.27;74.60;100205.10;1626201;86;27408;-81
2021/08/27 10:27:44;;;;;;;5.20;1.45;;;;;;;18.29;75.00;100206.50;1633056;87;43942;-81
2021/08/27 10:30:11;;;;;;;3.77;1.60;;;;;;;18.30;75.08;100204.09;1643139;85;26690;-79
2021/08/27 10:32:46;;;;;;;2.85;1.70;;;;;;;18.33;75.24;100210.36;1622010;87;25932;-80
2021/08/27 10:35:36;;;;;;;2.80;1.77;;;;;;;18.36;75.65;100204.98;1643218;87;26618;-79
2021/08/27 10:38:04;;;;;;;2.80;1.42;;;;;;;18.38;76.18;100208.27;1596821;87;27420;-79
2021/08/27 10:40:39;;;;;;;3.83;1.80;;;;;;;18.35;76.27;100206.87;1624651;87;26566;-79
2021/08/27 10:43:07;;;;;;;1.98;1.77;;;;;;;18.31;76.39;100209.79;1618979;87;26546;-80
2021/08/27 10:45:47;;;;;;;3.50;1.82;;;;;;;18.25;76.18;100207.23;1646297;87;25777;-80
2021/08/27 10:48:18;;;;;;;2.25;1.67;;;;;;;18.18;76.52;100209.28;1620004;87;26065;-80
2021/08/27 10:50:48;;;;;;;2.25;1.82;;;;;;;18.15;77.02;100205.72;1646301;86;27565;-80
2021/08/27 10:53:30;;;;;;;4.85;2.33;;;;;;;18.12;77.48;100207.03;1628833;87;25915;-79
2021/08/27 10:56:09;;;;;;;7.22;2.20;;;;;;;18.13;77.43;100207.33;1643730;87;25893;-80
2021/08/27 10:58:48;;;;;;;2.00;1.80;;;;;;;18.16;77.54;100207.34;1574864;87;25889;-80
2021/08/27 11:01:35;;;;;;;2.55;2.17;;;;;;;18.10;76.84;100203.74;1601964;87;25775;-80
2021/08/27 11:04:16;;;;;;;2.55;1.92;;;;;;;18.08;76.85;100207.23;1645814;86;27540;-80
2021/08/27 11:07:05;;;;;;;8.28;2.40;;;;;;;18.11;77.16;100204.57;1648545;86;25388;-80
2021/08/27 11:09:35;;;;;;;6.47;2.50;;;;;;;18.16;76.70;100212.77;1626052;86;25879;-80
2021/08/27 11:12:13;;;;;;;3.10;2.08;;;;;;;18.17;76.57;100212.55;1621990;87;25722;-80
2021/08/27 11:14:46;;;;;;;8.13;2.45;;;;;;;18.18;76.45;100214.70;1646421;86;26507;-80
2021/08/27 11:17:14;;;;;;;1.92;1.65;;;;;;;18.19;76.10;100211.77;1646700;87;27511;-81
2021/08/27 11:19:59;;;;;;;2.40;2.02;;;;;;;18.22;75.78;100211.81;1595040;87;26241;-79
2021/08/27 11:22:32;;;;;;;2.33;1.80;;;;;;;18.25;75.85;100207.23;1599973;87;25877;-79
2021/08/27 11:25:15;;;;;;;3.47;1.57;;;;;;;18.32;75.41;100211.45;1618454;87;25864;-79
2021/08/27 11:27:39;;;;;;;2.80;1.92;;;;;;;18.45;75.23;100204.90;1644292;87;25940;-79
2021/08/27 11:30:32;;;;;;;1.98;1.80;;;;;;;18.57;75.36;100209.69;1567508;87;27394;-80
2021/08/27 11:33:00;;;;;;;3.35;1.92;;;;;;;18.68;74.52;100212.02;1619848;86;25830;-80
2021/08/27 11:35:29;;;;;;;2.10;1.87;;;;;;;18.73;73.76;100217.00;1648300;86;25823;-80
2021/08/27 11:37:59;;;;;;;2.12;1.50;;;;;;;18.77;74.00;100212.72;1645318;87;26496;-80